Time;durP1;ratioP1;P1;durP2;ratioP2;P2;SDS_P1;SDS_P2;PMS_P1;PMS_P2;Temp;Humidity;BMP_temperature;BMP_pressure;BME280_temperature;BME280_humidity;BME280_pressure;Samples;Min_cycle;Max_cycle;Signal;HPM_P1;HPM_P2
2022/07/21 00:01:09;;;;;;;;;2.33;2.33;;;;;23.80;54.91;101467.50;4933580;28;45430;-62
2022/07/21 00:03:35;;;;;;;;;3.00;3.00;;;;;23.73;55.15;101446.72;4933261;28;45062;-63
2022/07/21 00:06:01;;;;;;;;;3.00;3.00;;;;;23.85;54.49;101464.72;4933011;28;45832;-66
2022/07/21 00:08:26;;;;;;;;;3.33;2.00;;;;;23.86;54.33;101451.06;4942887;28;45007;-62
2022/07/21 00:10:52;;;;;;;;;2.00;2.00;;;;;23.47;54.67;101392.59;4938840;28;45373;-62
2022/07/21 00:13:18;;;;;;;;;2.00;2.00;;;;;23.66;54.82;101418.63;4934843;28;45629;-61
2022/07/21 00:15:44;;;;;;;;;3.00;2.00;;;;;23.75;54.46;101444.84;4933572;28;45182;-66
2022/07/21 00:18:10;;;;;;;;;3.00;2.33;;;;;23.80;54.85;101461.16;4947455;28;45231;-63
2022/07/21 00:20:35;;;;;;;;;2.00;2.00;;;;;23.65;54.84;101435.03;4934092;28;45384;-63
2022/07/21 00:23:01;;;;;;;;;5.33;1.33;;;;;23.62;55.04;101440.53;4932672;28;45225;-60
2022/07/21 00:25:26;;;;;;;;;2.00;2.00;;;;;23.60;55.11;101447.84;4933469;28;45102;-66
2022/07/21 00:27:52;;;;;;;;;2.00;2.00;;;;;23.48;55.46;101433.47;4935528;28;45073;-62
2022/07/21 00:30:17;;;;;;;;;3.00;3.00;;;;;23.45;55.40;101424.44;4935239;28;45289;-61
2022/07/21 00:32:44;;;;;;;;;2.00;1.67;;;;;23.55;55.03;101443.34;4934864;28;45048;-64
2022/07/21 00:35:11;;;;;;;;;3.67;2.67;;;;;23.36;55.47;101411.84;4935300;28;45248;-66
2022/07/21 00:37:37;;;;;;;;;3.00;2.33;;;;;23.50;55.37;101447.97;4935226;28;45048;-60
2022/07/21 00:40:04;;;;;;;;;3.00;3.00;;;;;23.49;55.61;101434.38;4935359;28;45352;-63
2022/07/21 00:42:31;;;;;;;;;3.00;3.00;;;;;23.21;55.04;101379.38;4941927;28;45255;-62
2022/07/21 00:44:58;;;;;;;;;4.00;4.00;;;;;23.57;55.06;101437.88;4934278;28;45046;-62
2022/07/21 00:47:25;;;;;;;;;3.00;1.00;;;;;23.52;55.25;101431.59;4932555;28;45099;-64
2022/07/21 00:49:52;;;;;;;;;3.00;3.00;;;;;23.28;55.08;101387.44;4934144;28;45247;-62
2022/07/21 00:52:17;;;;;;;;;3.00;3.00;;;;;23.76;55.04;101449.38;4933489;28;45152;-60
2022/07/21 00:54:43;;;;;;;;;2.67;2.67;;;;;23.74;54.75;101452.16;4932819;28;45127;-60
2022/07/21 00:57:09;;;;;;;;;3.67;2.67;;;;;23.83;54.92;101447.50;4934311;28;44974;-62
2022/07/21 00:59:35;;;;;;;;;3.00;3.00;;;;;23.83;54.66;101451.09;4933200;28;45064;-61
2022/07/21 01:02:01;;;;;;;;;5.33;3.00;;;;;23.78;54.45;101431.16;4933951;28;45546;-61
2022/07/21 01:04:26;;;;;;;;;4.00;4.00;;;;;23.86;54.26;101444.72;4933641;28;45003;-61
2022/07/21 01:06:53;;;;;;;;;4.00;4.00;;;;;23.89;54.68;101450.09;4934836;28;44981;-61
2022/07/21 01:09:19;;;;;;;;;3.00;3.00;;;;;23.81;54.26;101444.75;4934239;28;45289;-64
2022/07/21 01:11:45;;;;;;;;;5.33;3.67;;;;;23.65;54.24;101430.47;4934125;28;45820;-61
2022/07/21 01:14:11;;;;;;;;;4.67;3.67;;;;;23.75;54.77;101442.13;4944722;28;45309;-60
2022/07/21 01:16:37;;;;;;;;;5.00;3.00;;;;;23.76;54.39;101451.19;4936749;28;45107;-63
2022/07/21 01:19:02;;;;;;;;;2.33;2.33;;;;;23.78;54.64;101442.06;4936606;28;45233;-61
2022/07/21 01:21:32;;;;;;;;;6.33;3.00;;;;;23.80;54.53;101444.78;4937988;28;45520;-66
2022/07/21 01:23:58;;;;;;;;;4.33;4.33;;;;;23.79;54.64;101453.88;4934814;28;45121;-61
2022/07/21 01:26:24;;;;;;;;;2.00;2.00;;;;;23.80;54.67;101448.41;4933890;28;45009;-64
2022/07/21 01:28:49;;;;;;;;;5.00;3.00;;;;;23.81;54.83;101449.28;4934831;28;45092;-60
2022/07/21 01:31:15;;;;;;;;;6.00;4.33;;;;;23.69;54.57;101423.13;4934450;28;45480;-63
2022/07/21 01:33:40;;;;;;;;;3.67;3.67;;;;;23.73;54.92;101431.22;4934088;28;45117;-62
2022/07/21 01:36:06;;;;;;;;;3.67;3.67;;;;;23.53;54.92;101401.56;4934200;28;45085;-62
2022/07/21 01:41:32;;;;;;;;;7.00;4.00;;;;;23.62;55.17;101430.50;4934871;28;45267;-65
2022/07/21 01:44:03;;;;;;;;;2.33;2.33;;;;;23.45;55.23;101408.09;4933946;28;44919;-61
2022/07/21 01:46:37;;;;;;;;;4.33;3.33;;;;;23.56;55.41;101436.09;4934226;28;45202;-63
2022/07/21 01:49:04;;;;;;;;;3.00;3.00;;;;;23.35;55.46;101399.16;4934470;28;45115;-64
2022/07/21 01:51:30;;;;;;;;;4.00;4.00;;;;;23.53;55.43;101427.97;4933576;28;45647;-62
2022/07/21 01:53:55;;;;;;;;;4.00;3.33;;;;;23.55;55.40;101440.63;4933962;28;44898;-66
2022/07/21 01:56:23;;;;;;;;;4.00;2.33;;;;;23.66;55.27;101437.72;4941380;28;45094;-61
2022/07/21 01:58:50;;;;;;;;;4.33;4.33;;;;;23.59;55.40;101424.22;4934398;28;45092;-61
2022/07/21 02:01:16;;;;;;;;;7.33;5.67;;;;;23.69;55.35;101437.69;4931171;28;45899;-61
2022/07/21 02:03:43;;;;;;;;;4.00;3.67;;;;;23.73;55.16;101449.44;4932768;28;45147;-67
2022/07/21 02:06:09;;;;;;;;;3.00;3.00;;;;;23.68;55.78;101454.06;4933563;28;44921;-61
2022/07/21 02:08:34;;;;;;;;;4.00;4.00;;;;;23.34;55.36;101409.13;4933043;28;45155;-63
2022/07/21 02:11:00;;;;;;;;;5.00;5.00;;;;;23.59;56.00;101449.66;4933060;28;45969;-61
2022/07/21 02:13:26;;;;;;;;;7.00;4.33;;;;;23.52;56.04;101450.69;4932916;28;44977;-60
2022/07/21 02:15:51;;;;;;;;;6.00;4.67;;;;;23.37;56.32;101439.09;4933180;28;45238;-63
2022/07/21 02:18:17;;;;;;;;;4.00;4.00;;;;;23.47;56.33;101458.06;4949185;28;44853;-64
2022/07/21 02:20:44;;;;;;;;;5.00;5.00;;;;;23.44;56.12;101450.81;4942137;28;45254;-63
2022/07/21 02:23:10;;;;;;;;;4.33;4.00;;;;;23.27;56.16;101431.09;4933781;28;45248;-60
2022/07/21 02:25:36;;;;;;;;;6.33;6.00;;;;;23.26;56.37;101435.63;4934737;28;45048;-61
2022/07/21 02:28:01;;;;;;;;;5.00;5.00;;;;;23.33;56.55;101451.00;4949635;28;45138;-60
2022/07/21 02:30:26;;;;;;;;;7.33;5.00;;;;;23.17;56.36;101419.44;4937235;28;45075;-62
2022/07/21 02:32:52;;;;;;;;;8.00;5.00;;;;;23.31;56.31;101444.66;4937139;28;45086;-64
2022/07/21 02:35:17;;;;;;;;;6.00;5.00;;;;;23.34;56.30;101455.50;4936496;28;44997;-61
2022/07/21 02:37:42;;;;;;;;;6.67;4.00;;;;;23.33;56.51;101455.56;4937332;28;45108;-60
2022/07/21 02:40:08;;;;;;;;;5.00;4.00;;;;;23.32;56.18;101449.16;4935638;28;45210;-62
2022/07/21 02:42:33;;;;;;;;;7.00;7.00;;;;;23.13;56.26;101428.56;4936315;28;45124;-60
2022/07/21 02:44:59;;;;;;;;;6.33;6.33;;;;;23.15;56.61;101441.25;4949438;28;45078;-62
2022/07/21 02:47:24;;;;;;;;;7.00;7.00;;;;;23.03;56.50;101427.75;4937417;28;45208;-62
2022/07/21 02:49:49;;;;;;;;;8.67;7.67;;;;;23.12;56.55;101452.19;4936242;28;51758;-63
2022/07/21 02:52:15;;;;;;;;;10.67;10.67;;;;;23.02;56.90;101446.88;4936668;28;45231;-61
2022/07/21 02:54:40;;;;;;;;;9.00;8.00;;;;;22.99;57.08;101439.66;4935994;28;45201;-62
2022/07/21 02:57:06;;;;;;;;;14.33;8.33;;;;;23.16;56.98;101469.41;4937357;28;45253;-63
2022/07/21 02:59:31;;;;;;;;;12.00;7.67;;;;;23.19;56.64;101475.72;4936589;28;45714;-62
2022/07/21 03:01:56;;;;;;;;;14.00;10.33;;;;;23.21;56.84;101472.97;4936301;28;45215;-64
2022/07/21 03:04:22;;;;;;;;;11.00;10.33;;;;;23.19;56.67;101474.81;4949042;28;45108;-63
2022/07/21 03:06:49;;;;;;;;;12.67;12.67;;;;;22.78;56.73;101406.31;4937135;28;44962;-61
2022/07/21 03:09:15;;;;;;;;;9.00;9.00;;;;;23.04;56.90;101455.94;4925353;28;45974;-61
2022/07/21 03:11:40;;;;;;;;;9.67;9.67;;;;;23.14;57.02;101474.88;4936078;28;45136;-67
2022/07/21 03:14:05;;;;;;;;;9.00;7.00;;;;;23.15;56.67;101473.97;4945871;28;45199;-66
2022/07/21 03:16:31;;;;;;;;;9.67;9.00;;;;;23.04;56.70;101459.56;4939028;28;45320;-64
2022/07/21 03:18:56;;;;;;;;;11.67;11.33;;;;;22.71;56.54;101406.44;4946733;28;45467;-63
2022/07/21 03:21:22;;;;;;;;;10.00;6.00;;;;;23.13;56.61;101478.56;4935610;28;45023;-61
2022/07/21 03:23:47;;;;;;;;;10.00;8.00;;;;;23.06;57.18;101467.72;4935877;28;44933;-61
2022/07/21 03:26:13;;;;;;;;;10.33;10.33;;;;;22.98;56.95;101478.69;4936765;28;45163;-64
2022/07/21 03:28:40;;;;;;;;;11.00;10.67;;;;;22.85;57.57;101488.88;4935863;28;45125;-62
2022/07/21 03:31:05;;;;;;;;;11.00;10.00;;;;;22.71;58.06;101482.69;4935527;28;44971;-62
2022/07/21 03:33:31;;;;;;;;;13.00;11.67;;;;;22.62;58.35;101478.28;4935933;28;45041;-61
2022/07/21 03:35:58;;;;;;;;;11.00;9.00;;;;;22.58;58.72;101485.56;4935989;28;45168;-64
2022/07/21 03:38:23;;;;;;;;;10.00;8.00;;;;;22.54;58.53;101486.53;4935736;28;45651;-61
2022/07/21 03:40:49;;;;;;;;;13.00;12.67;;;;;22.55;58.51;101490.13;4936132;28;45086;-64
2022/07/21 03:43:14;;;;;;;;;12.33;11.33;;;;;22.45;57.98;101470.28;4936097;28;45349;-63
2022/07/21 03:45:40;;;;;;;;;15.33;13.00;;;;;22.64;58.19;101488.22;4936777;28;45372;-61
2022/07/21 03:48:06;;;;;;;;;13.33;12.67;;;;;22.63;58.44;101494.56;4935803;28;45272;-65
2022/07/21 03:50:33;;;;;;;;;11.67;9.67;;;;;22.54;58.23;101491.09;4936056;28;45493;-63
2022/07/21 03:52:59;;;;;;;;;13.33;13.33;;;;;22.54;58.31;101504.69;4934419;28;44952;-59
2022/07/21 03:55:24;;;;;;;;;12.67;11.00;;;;;22.57;58.10;101494.66;4935962;28;45183;-61
2022/07/21 03:57:57;;;;;;;;;9.00;9.00;;;;;22.54;58.38;101502.88;4935589;28;45538;-61
2022/07/21 04:00:26;;;;;;;;;9.33;9.33;;;;;22.48;58.87;101502.94;4935223;28;45162;-60
2022/07/21 04:02:52;;;;;;;;;10.67;9.67;;;;;22.52;58.74;101495.63;4935269;28;45014;-61
2022/07/21 04:05:19;;;;;;;;;12.00;9.67;;;;;22.40;59.38;101494.81;4935681;28;44958;-61
2022/07/21 04:07:47;;;;;;;;;13.00;11.33;;;;;22.37;59.39;101504.84;4935577;28;45894;-63
2022/07/21 04:10:14;;;;;;;;;11.67;11.67;;;;;22.40;59.33;101504.81;4935137;28;44983;-61
2022/07/21 04:12:40;;;;;;;;;13.33;11.67;;;;;22.31;59.33;101485.88;4932529;28;44958;-60
2022/07/21 04:15:08;;;;;;;;;11.33;10.00;;;;;22.40;59.21;101500.28;4932611;28;44969;-61
2022/07/21 04:17:34;;;;;;;;;15.00;13.33;;;;;22.41;59.42;101504.81;4943217;28;45524;-63
2022/07/21 04:19:59;;;;;;;;;18.33;16.33;;;;;;;;4934653;28;45143;-65
2022/07/21 04:22:25;;;;;;;;;19.00;15.33;;;;;22.38;59.46;101507.56;4932543;28;45158;-61
2022/07/21 04:24:50;;;;;;;;;19.00;15.33;;;;;22.39;59.67;101508.47;4932731;28;45054;-61
2022/07/21 04:27:16;;;;;;;;;15.67;13.67;;;;;22.42;59.17;101511.16;4932448;28;45750;-63
2022/07/21 04:29:42;;;;;;;;;16.00;13.00;;;;;22.50;59.20;101514.69;4932909;28;44973;-61
2022/07/21 04:32:07;;;;;;;;;18.67;14.00;;;;;22.20;59.16;101445.13;4932726;28;45219;-62
2022/07/21 04:34:33;;;;;;;;;12.33;12.33;;;;;22.61;59.04;101522.75;4932547;28;45513;-64
2022/07/21 04:36:58;;;;;;;;;15.33;13.00;;;;;22.51;59.18;101508.34;4931680;28;45658;-59
2022/07/21 04:39:24;;;;;;;;;15.67;13.00;;;;;22.56;59.31;101521.91;4932302;28;45404;-61
2022/07/21 04:41:49;;;;;;;;;15.00;14.33;;;;;22.51;59.42;101521.97;4932703;28;45356;-61
2022/07/21 04:44:14;;;;;;;;;20.33;18.00;;;;;22.29;59.66;101483.19;4933298;28;45387;-61
2022/07/21 04:46:40;;;;;;;;;15.33;13.00;;;;;22.41;59.78;101521.16;4932121;28;53153;-61
2022/07/21 04:49:05;;;;;;;;;13.00;12.33;;;;;22.39;59.62;101519.34;4930257;28;44977;-61
2022/07/21 04:51:30;;;;;;;;;25.67;14.00;;;;;22.42;59.67;101522.03;4931912;28;45415;-60
2022/07/21 04:53:56;;;;;;;;;18.00;16.33;;;;;22.40;59.52;101526.59;4932046;28;45352;-61
2022/07/21 04:56:21;;;;;;;;;18.67;16.67;;;;;22.37;59.75;101523.91;4931255;28;45269;-61
2022/07/21 04:58:46;;;;;;;;;19.00;18.67;;;;;22.37;59.54;101524.84;4932168;28;45213;-60
2022/07/21 05:01:11;;;;;;;;;20.00;15.67;;;;;22.36;59.67;101525.75;4932539;28;44936;-60
2022/07/21 05:03:37;;;;;;;;;23.00;18.25;;;;;22.04;59.65;101475.22;4926885;28;44980;-62
2022/07/21 05:06:02;;;;;;;;;22.00;16.00;;;;;22.36;59.68;101535.75;4932427;28;45570;-61
2022/07/21 05:08:28;;;;;;;;;21.33;19.33;;;;;21.85;59.65;101451.81;4931638;28;45255;-62
2022/07/21 05:10:53;;;;;;;;;21.00;17.33;;;;;22.20;59.83;101535.84;4931551;28;45064;-61
2022/07/21 05:13:19;;;;;;;;;22.67;17.33;;;;;22.26;60.04;101537.63;4935030;28;45048;-61
2022/07/21 05:15:44;;;;;;;;;22.33;20.67;;;;;22.30;60.03;101530.34;4937725;28;45500;-62
2022/07/21 05:18:09;;;;;;;;;17.33;17.33;;;;;22.31;60.11;101537.63;4946929;28;45256;-61
2022/07/21 05:20:35;;;;;;;;;17.00;13.25;;;;;22.33;60.09;101531.22;4934324;28;44931;-59
2022/07/21 05:23:01;;;;;;;;;24.33;18.67;;;;;22.35;60.00;101543.00;4934252;28;44989;-61
2022/07/21 05:25:28;;;;;;;;;18.75;17.00;;;;;22.22;59.97;101523.13;4932391;28;45118;-61
2022/07/21 05:27:53;;;;;;;;;32.75;30.00;;;;;22.34;60.09;101534.84;4933002;28;45317;-62
2022/07/21 05:30:19;;;;;;;;;22.00;20.50;;;;;22.32;59.92;101539.41;4931776;28;45028;-60
2022/07/21 05:32:44;;;;;;;;;16.00;14.67;;;;;22.24;60.12;101540.34;4940636;28;44958;-61
2022/07/21 05:35:11;;;;;;;;;19.00;18.50;;;;;22.27;60.04;101537.59;4930957;28;45767;-62
2022/07/21 05:37:40;;;;;;;;;22.00;18.75;;;;;22.15;60.15;101518.66;4931777;28;44937;-62
2022/07/21 05:40:07;;;;;;;;;23.25;23.25;;;;;22.11;60.15;101506.00;4932884;28;44950;-60
2022/07/21 05:42:33;;;;;;;;;23.00;15.67;;;;;22.35;59.93;101540.25;4943101;28;45155;-62
2022/07/21 05:44:58;;;;;;;;;17.67;16.00;;;;;22.38;59.93;101539.34;4939856;28;45768;-61
2022/07/21 05:47:24;;;;;;;;;14.00;12.67;;;;;22.47;59.67;101552.84;4935475;28;50515;-62
2022/07/21 05:49:49;;;;;;;;;15.00;15.00;;;;;22.45;59.75;101546.53;4942471;28;45052;-62
2022/07/21 05:52:15;;;;;;;;;16.33;15.33;;;;;22.41;59.75;101529.31;4947235;28;45313;-65
2022/07/21 05:54:40;;;;;;;;;22.00;17.00;;;;;22.35;59.37;101518.47;4938407;28;46997;-63
2022/07/21 05:57:05;;;;;;;;;15.00;14.00;;;;;22.59;59.27;101554.56;4937486;28;44935;-64
2022/07/21 05:59:30;;;;;;;;;21.33;18.67;;;;;22.58;59.48;101556.38;4934249;28;45411;-64
2022/07/21 06:01:56;;;;;;;;;21.50;19.50;;;;;22.52;59.76;101559.19;4938290;28;45069;-63
2022/07/21 06:04:21;;;;;;;;;22.75;20.50;;;;;22.59;59.71;101566.34;4931820;28;45385;-63
2022/07/21 06:06:47;;;;;;;;;24.00;17.33;;;;;22.61;59.62;101566.34;4931957;28;44923;-62
2022/07/21 06:09:12;;;;;;;;;18.00;16.75;;;;;22.55;59.34;101556.41;4938791;28;45755;-64
2022/07/21 06:11:37;;;;;;;;;22.75;22.00;;;;;22.64;59.45;101569.94;4930197;28;45456;-62
2022/07/21 06:14:04;;;;;;;;;18.67;17.00;;;;;22.64;59.32;101572.66;4946668;28;45099;-66
2022/07/21 06:16:29;;;;;;;;;23.00;19.00;;;;;22.62;59.23;101552.72;4937525;28;45108;-63
2022/07/21 06:18:54;;;;;;;;;20.00;17.25;;;;;22.33;59.30;101495.81;4951813;28;45962;-61
2022/07/21 06:21:20;;;;;;;;;18.33;15.67;;;;;22.46;59.45;101537.44;4937297;28;45188;-71
2022/07/21 06:23:45;;;;;;;;;17.00;17.00;;;;;22.68;59.44;101575.34;4938217;28;46974;-67
2022/07/21 06:26:10;;;;;;;;;18.33;18.33;;;;;22.41;58.91;101529.31;4930189;28;45398;-68
2022/07/21 06:28:36;;;;;;;;;23.50;18.75;;;;;22.72;59.41;101578.03;4916046;28;45317;-65
2022/07/21 06:31:01;;;;;;;;;23.75;18.75;;;;;22.60;59.15;101557.28;4915738;28;45269;-66
2022/07/21 06:33:26;;;;;;;;;19.33;16.67;;;;;22.63;59.60;101559.94;4915056;28;45594;-69
2022/07/21 06:35:52;;;;;;;;;23.00;18.33;;;;;22.54;59.34;101540.09;4915213;28;45458;-59
2022/07/21 06:38:18;;;;;;;;;25.00;21.50;;;;;22.84;59.82;101579.72;4915023;28;45505;-72
2022/07/21 06:40:43;;;;;;;;;19.00;16.00;;;;;22.61;59.12;101542.72;4915601;28;45367;-66
2022/07/21 06:43:09;;;;;;;;;23.00;16.00;;;;;22.68;58.89;101550.84;4915044;28;46902;-64
2022/07/21 06:45:34;;;;;;;;;16.33;15.33;;;;;22.92;58.70;101576.91;4897263;28;45583;-64
2022/07/21 06:48:05;;;;;;;;;14.00;12.67;;;;;22.85;58.79;101570.63;4915124;28;45446;-59
2022/07/21 06:50:31;;;;;;;;;26.33;20.33;;;;;22.85;58.71;101570.63;4915526;28;45273;-69
2022/07/21 06:52:56;;;;;;;;;19.33;17.67;;;;;22.60;58.70;101524.59;4914814;28;46398;-66
2022/07/21 06:55:22;;;;;;;;;16.33;16.00;;;;;22.76;58.68;101544.38;4914956;28;45719;-71
2022/07/21 06:57:47;;;;;;;;;21.50;19.25;;;;;22.94;58.47;101572.34;4914831;28;45322;-65
2022/07/21 07:00:13;;;;;;;;;21.50;19.50;;;;;23.01;58.65;101595.84;4915075;28;45492;-71
2022/07/21 07:02:38;;;;;;;;;19.33;19.33;;;;;22.88;58.41;101561.50;4914307;28;46084;-68
2022/07/21 07:05:04;;;;;;;;;23.67;18.67;;;;;22.82;58.35;101538.84;4914340;28;45445;-68
2022/07/21 07:07:30;;;;;;;;;21.00;18.00;;;;;22.69;58.14;101506.34;4915153;28;45682;-72
2022/07/21 07:09:56;;;;;;;;;21.00;18.75;;;;;23.21;58.08;101592.03;4914817;28;45264;-70
2022/07/21 07:12:22;;;;;;;;;26.33;17.00;;;;;23.05;57.85;101566.75;4915973;28;46662;-63
2022/07/21 07:14:47;;;;;;;;;19.50;19.50;;;;;23.17;57.73;101602.97;4917654;28;45416;-62
2022/07/21 07:17:18;;;;;;;;;16.33;14.67;;;;;23.12;58.03;101587.59;4925901;28;45487;-71
2022/07/21 07:19:44;;;;;;;;;21.33;18.00;;;;;22.90;57.88;101556.94;4922846;28;45515;-69
2022/07/21 07:22:09;;;;;;;;;22.00;20.33;;;;;23.18;57.98;101585.69;4918051;28;46354;-64
2022/07/21 07:24:34;;;;;;;;;25.25;18.50;;;;;23.08;57.53;101570.38;4917740;28;45470;-63
2022/07/21 07:27:00;;;;;;;;;16.75;14.75;;;;;23.37;57.56;101599.09;4917936;28;45939;-67
2022/07/21 07:29:25;;;;;;;;;19.33;14.67;;;;;23.29;56.70;101577.38;4918407;28;45283;-67
2022/07/21 07:31:50;;;;;;;;;19.67;16.67;;;;;23.11;57.45;101553.06;4917324;28;46176;-69
2022/07/21 07:34:16;;;;;;;;;21.33;18.00;;;;;23.42;57.50;101596.31;4917685;28;45458;-67
2022/07/21 07:36:41;;;;;;;;;20.00;20.00;;;;;23.27;57.36;101571.03;4917715;28;45458;-70
2022/07/21 07:39:07;;;;;;;;;18.67;16.00;;;;;23.49;57.32;101598.00;4918535;28;45416;-72
2022/07/21 07:41:32;;;;;;;;;24.00;21.75;;;;;23.28;57.02;101561.94;4917714;28;45826;-69
2022/07/21 07:43:59;;;;;;;;;24.50;18.50;;;;;23.39;57.14;101580.88;4931009;28;45248;-68
2022/07/21 07:46:25;;;;;;;;;20.33;20.33;;;;;23.62;57.04;101602.38;4917819;28;45564;-66
2022/07/21 07:48:51;;;;;;;;;21.75;20.25;;;;;23.50;56.54;101573.44;4917643;28;45466;-62
2022/07/21 07:51:16;;;;;;;;;25.00;21.25;;;;;23.27;56.33;101532.88;4917253;28;46085;-71
2022/07/21 07:53:42;;;;;;;;;19.33;18.00;;;;;23.82;56.27;101620.28;4917963;28;45577;-69
2022/07/21 07:56:07;;;;;;;;;24.25;20.75;;;;;23.83;55.91;101603.03;4918068;28;45352;-74
2022/07/21 07:58:33;;;;;;;;;29.00;22.00;;;;;23.92;55.49;101605.59;4918412;28;45428;-66
2022/07/21 08:00:59;;;;;;;;;31.25;29.50;;;;;23.96;55.67;101593.72;4917817;28;45410;-65
2022/07/21 08:03:26;;;;;;;;;21.00;18.00;;;;;24.27;54.73;101620.53;4917232;28;45569;-72
2022/07/21 08:05:54;;;;;;;;;27.75;24.00;;;;;24.41;54.21;101621.19;4916758;28;45476;-61
2022/07/21 08:08:20;;;;;;;;;23.75;18.50;;;;;24.29;54.16;101603.19;4926563;28;45350;-63
2022/07/21 08:10:45;;;;;;;;;23.50;23.00;;;;;24.30;54.24;101612.28;4921165;28;46628;-68
2022/07/21 08:13:16;;;;;;;;;27.75;25.25;;;;;24.40;54.70;101626.69;4906825;28;45458;-69
2022/07/21 08:15:42;;;;;;;;;22.75;19.25;;;;;24.42;53.79;101614.81;4922682;28;45483;-66
2022/07/21 08:18:08;;;;;;;;;29.25;24.50;;;;;24.60;53.71;101630.00;4931289;28;45541;-68
2022/07/21 08:20:34;;;;;;;;;23.75;21.00;;;;;24.38;53.26;101591.19;4916939;28;46061;-69
2022/07/21 08:23:00;;;;;;;;;30.50;24.00;;;;;24.68;54.04;101634.44;4916975;28;45506;-69
2022/07/21 08:25:25;;;;;;;;;26.25;25.75;;;;;24.23;53.49;101555.97;4917094;28;45324;-65
2022/07/21 08:27:50;;;;;;;;;27.00;21.50;;;;;23.94;53.62;101507.31;4917404;28;45371;-66
2022/07/21 08:30:16;;;;;;;;;30.25;27.50;;;;;24.64;53.25;101617.19;4917629;28;45467;-68
2022/07/21 08:32:41;;;;;;;;;34.00;31.25;;;;;24.72;53.60;101639.81;4917045;28;45455;-61
2022/07/21 08:35:08;;;;;;;;;34.00;31.50;;;;;24.66;53.50;101596.19;4917162;28;45436;-66
2022/07/21 08:37:40;;;;;;;;;23.00;21.00;;;;;24.73;52.65;101616.09;4917601;28;45606;-63
2022/07/21 08:40:08;;;;;;;;;32.75;30.00;;;;;24.79;53.09;101613.28;4916218;28;45361;-73
2022/07/21 08:42:35;;;;;;;;;28.50;28.25;;;;;24.96;52.03;101626.59;4917121;28;45568;-70
2022/07/21 08:45:00;;;;;;;;;31.00;25.75;;;;;24.78;52.49;101601.44;4916818;28;45550;-72
2022/07/21 08:47:26;;;;;;;;;28.50;23.25;;;;;25.00;52.72;101629.25;4917125;28;45245;-72
2022/07/21 08:49:52;;;;;;;;;21.67;20.33;;;;;24.87;51.83;101594.00;4916818;28;45378;-68
2022/07/21 08:52:18;;;;;;;;;25.33;20.00;;;;;25.04;51.90;101635.56;4916574;28;45374;-74
2022/07/21 08:54:44;;;;;;;;;28.00;18.33;;;;;24.99;52.08;101629.28;4916632;28;45314;-68
2022/07/21 08:57:09;;;;;;;;;27.25;26.75;;;;;25.00;52.23;101634.72;4917161;28;45380;-63
2022/07/21 08:59:35;;;;;;;;;27.33;21.67;;;;;25.10;52.10;101631.81;4916949;28;45368;-64
2022/07/21 09:02:00;;;;;;;;;19.00;16.67;;;;;24.93;52.07;101583.84;4916572;28;45485;-64
2022/07/21 09:04:31;;;;;;;;;27.33;22.00;;;;;25.17;52.05;101625.28;4916569;28;45387;-69
2022/07/21 09:07:03;;;;;;;;;26.67;20.00;;;;;25.17;51.28;101631.63;4916945;28;45497;-68
2022/07/21 09:09:32;;;;;;;;;21.75;21.75;;;;;25.12;51.65;101630.84;4916091;28;45546;-68
2022/07/21 09:11:58;;;;;;;;;20.67;19.00;;;;;25.14;51.39;101631.69;4916004;28;45316;-69
2022/07/21 09:14:26;;;;;;;;;23.00;19.67;;;;;25.19;51.80;101621.59;4916473;28;45529;-71
2022/07/21 09:16:52;;;;;;;;;26.33;21.33;;;;;25.27;51.09;101628.75;4922065;28;45554;-70
2022/07/21 09:19:26;;;;;;;;;26.50;24.50;;;;;25.06;51.17;101594.50;4924157;28;45461;-62
2022/07/21 09:21:55;;;;;;;;;19.33;16.67;;;;;25.15;50.92;101597.06;4916328;28;45446;-59
2022/07/21 09:24:21;;;;;;;;;28.25;22.75;;;;;25.37;50.91;101630.38;4916973;28;45392;-65
2022/07/21 09:27:00;;;;;;;;;21.33;21.33;;;;;25.49;50.91;101632.84;4918818;28;45422;-64
2022/07/21 09:29:26;;;;;;;;;25.67;20.00;;;;;25.31;50.50;101586.72;4918409;28;45355;-65
2022/07/21 09:31:51;;;;;;;;;23.00;20.33;;;;;25.43;50.34;101599.25;4918383;28;45291;-67
2022/07/21 09:34:19;;;;;;;;;23.50;21.50;;;;;25.51;49.78;101605.47;4918887;28;45462;-64
2022/07/21 09:36:57;;;;;;;;;24.00;20.00;;;;;25.59;49.91;101636.28;4918947;28;45374;-64
2022/07/21 09:39:43;;;;;;;;;22.67;19.00;;;;;25.62;50.27;101643.50;4917828;28;45426;-67
2022/07/21 09:42:26;;;;;;;;;22.00;20.50;;;;;25.53;50.21;101634.56;4915976;28;45465;-69
2022/07/21 09:44:59;;;;;;;;;21.75;21.25;;;;;25.55;50.27;101643.63;4915836;28;45392;-69
2022/07/21 09:47:28;;;;;;;;;24.75;19.00;;;;;25.51;49.78;101624.63;4915966;28;45504;-66
2022/07/21 09:49:55;;;;;;;;;22.50;21.00;;;;;25.48;50.37;101617.34;4915681;28;45375;-70
2022/07/21 09:52:23;;;;;;;;;29.00;24.50;;;;;25.77;50.17;101634.94;4915235;28;45359;-67
2022/07/21 09:54:50;;;;;;;;;21.75;16.00;;;;;25.72;49.62;101590.38;4916075;28;45431;-65
2022/07/21 09:57:16;;;;;;;;;25.00;20.67;;;;;26.00;48.79;101603.44;4915806;28;45499;-63
2022/07/21 09:59:47;;;;;;;;;24.00;19.00;;;;;26.25;48.35;101634.78;4915483;28;46560;-62
2022/07/21 10:02:24;;;;;;;;;23.75;22.75;;;;;26.23;48.60;101627.53;4915270;28;46351;-62
2022/07/21 10:04:55;;;;;;;;;20.00;19.00;;;;;26.18;48.44;101610.31;4915250;28;45401;-62
2022/07/21 10:07:21;;;;;;;;;26.25;24.25;;;;;26.21;48.37;101623.91;4915906;28;45549;-62
2022/07/21 10:09:47;;;;;;;;;24.00;22.67;;;;;26.17;48.13;101608.47;4915437;28;46392;-65
2022/07/21 10:12:15;;;;;;;;;21.00;20.67;;;;;26.19;47.82;101581.97;4915587;28;45467;-67
2022/07/21 10:14:41;;;;;;;;;20.33;18.67;;;;;26.54;47.50;101624.88;4915924;28;45499;-71
2022/07/21 10:17:06;;;;;;;;;22.67;22.67;;;;;26.44;47.40;101595.94;4909441;28;45452;-64
2022/07/21 10:19:45;;;;;;;;;26.67;21.33;;;;;26.41;46.84;101596.00;4920969;28;45893;-59
2022/07/21 10:22:28;;;;;;;;;21.00;17.33;;;;;26.27;47.06;101583.56;4916482;28;45463;-61
2022/07/21 10:24:54;;;;;;;;;22.00;20.33;;;;;26.51;46.84;101615.84;4912300;28;45523;-69
2022/07/21 10:27:20;;;;;;;;;18.00;17.67;;;;;26.28;46.70;101581.72;4917246;28;45481;-62
2022/07/21 10:29:54;;;;;;;;;21.50;19.50;;;;;26.58;47.08;101622.97;4911980;28;45968;-62
2022/07/21 10:32:29;;;;;;;;;21.00;19.50;;;;;26.55;46.66;101612.09;4915267;28;45486;-63
2022/07/21 10:34:56;;;;;;;;;28.67;22.00;;;;;26.61;46.77;101612.84;4914972;28;45264;-68
2022/07/21 10:37:51;;;;;;;;;18.33;16.33;;;;;26.52;46.69;101571.09;4915415;28;45470;-67
2022/07/21 10:40:19;;;;;;;;;22.67;17.33;;;;;26.82;46.52;101619.59;4905839;28;47016;-63
2022/07/21 10:43:05;;;;;;;;;24.75;24.00;;;;;26.87;46.25;101624.06;4915306;28;45494;-68
2022/07/21 10:45:32;;;;;;;;;18.00;17.00;;;;;26.97;46.00;101631.97;4914827;28;45355;-63
2022/07/21 10:47:59;;;;;;;;;16.33;16.00;;;;;26.99;45.84;101632.84;4917629;28;45357;-63
2022/07/21 10:50:39;;;;;;;;;22.00;21.00;;;;;26.73;46.15;101580.56;4917949;28;45288;-66
2022/07/21 10:53:13;;;;;;;;;18.33;13.33;;;;;26.97;45.69;101598.19;4910297;28;45760;-65
2022/07/21 10:55:45;;;;;;;;;16.00;14.67;;;;;26.99;45.53;101619.16;4921275;28;45479;-64
2022/07/21 10:58:12;;;;;;;;;19.00;17.67;;;;;26.98;45.84;101621.94;4918697;28;45430;-62
2022/07/21 11:00:37;;;;;;;;;21.33;20.00;;;;;26.93;45.85;101602.84;4914392;28;46974;-62
2022/07/21 11:03:13;;;;;;;;;22.67;18.67;;;;;26.96;45.90;101597.28;4918388;28;45331;-64
2022/07/21 11:06:16;;;;;;;;;20.00;16.00;;;;;27.21;45.86;101619.41;4918203;28;45364;-69
2022/07/21 11:08:44;;;;;;;;;18.33;15.67;;;;;27.18;45.46;101605.78;4918052;28;45409;-63
2022/07/21 11:11:22;;;;;;;;;19.00;17.67;;;;;27.24;45.32;101625.75;4917549;28;46080;-68
2022/07/21 11:14:10;;;;;;;;;21.33;20.00;;;;;27.27;45.60;101628.41;4917897;28;45457;-64
2022/07/21 11:16:42;;;;;;;;;27.25;22.00;;;;;27.16;45.08;101620.50;4921729;28;45540;-66